• Join FlightAware (Why Join?)
  • Login
  • US Flag 
04:18AM EST


 

Airport Tracker/Info


-or-


 

Live Flight TrackerFlight Track Log ✈ ASQ4252 ✈ 18-Jun-2013 ✈ KPWM - KIAD

Flight Track Log - Related Links

Times and Time Zones

All times are in EDT time to prevent confusion due to time zone crossing. See the ASQ4252 flight status page for this flight to view local times or setup timezone preferences in your user account.

Time Position Orientation Groundspeed Altitude Reporting Facility
EDT Latitude Longitude Course Direction KTS MPH feet Rate Location/Type
05:54AM 43.6503 -70.4486 232° Southwest 199 229 3,400  Level Boston Center
05:55AM 43.5456 -70.1377 216° Southwest  Level FlightAware Approximate
05:55AM 43.5908 -70.5136 218° Southwest 229 264 6,300  Level Boston Center
05:56AM 43.4833 -70.2301 229° Southwest  Level FlightAware Approximate
05:56AM 43.5394 -70.5611 214° Southwest 252 290 8,600  Level Boston Center
05:57AM 43.4269 -70.3295 235° Southwest  Level FlightAware Approximate
05:57AM 43.4650 -70.5978 200° South 257 296 10,900  Level Boston Center
05:58AM 43.3650 -70.4224 226° Southwest  Level FlightAware Approximate
05:58AM 43.3842 -70.6289 196° South 287 330 11,500  Level Boston Center
05:59AM 43.3046 -70.5171 232° Southwest  Level FlightAware Approximate
05:59AM 43.2869 -70.6717 198° South 329 379 12,800  Level Boston Center
06:00AM 43.1731 -70.7178 196° South 351 404 14,400 1,500 Climbing Boston Center
06:01AM 43.0761 -70.7800 205° Southwest 351 404 15,800 1,200 Climbing Boston Center
06:02AM 42.9889 -70.8053 192° South 356 410 16,800 840 Climbing Boston Center
06:03AM 42.9125 -70.8469 202° Southwest 361 415 17,500 900 Climbing Boston Center
06:04AM 42.8028 -70.9206 206° Southwest 367 422 18,700 1,080 Climbing Boston Center
06:05AM 42.7017 -70.9850 205° Southwest 372 428 19,700 960 Climbing Boston Center
06:06AM 42.6086 -71.0494 207° Southwest 372 428 20,700 960 Climbing Boston Center
06:07AM 42.5178 -71.1219 210° Southwest 372 428 21,700 1,200 Climbing Boston Center
06:08AM 42.4753 -71.2381 244° Southwest 342 394 23,200 1,440 Climbing Boston Center
06:09AM 42.4517 -71.3594 255° West 336 387 24,600 1,380 Climbing Boston Center
06:10AM 42.4256 -71.4811 254° West 342 394 26,000 1,440 Climbing Boston Center
06:11AM 42.3972 -71.6022 252° West 342 394 27,500 1,380 Climbing Boston Center
06:12AM 42.3731 -71.7122 253° West 335 386 28,800 1,200 Climbing Boston Center
06:13AM 42.3508 -71.8247 255° West 322 371 30,000 1,200 Climbing Boston Center
06:14AM 42.3117 -71.9319 244° Southwest 317 365 31,300 1,200 Climbing Boston Center
06:15AM 42.2683 -72.0361 241° Southwest 317 365 32,500 1,200 Climbing Boston Center
06:16AM 42.2250 -72.1400 241° Southwest 317 365 33,800 1,200 Climbing Boston Center
06:17AM 42.1836 -72.2411 241° Southwest 322 371 35,000 1,080 Climbing Boston Center
06:18AM 42.1397 -72.3392 239° Southwest 317 365 36,000 480 Climbing Boston Center
06:19AM 42.0961 -72.4456 241° Southwest 317 365 36,000  Level Boston Center
06:20AM 42.0503 -72.5603 242° Southwest 323 372 36,000  Level Boston Center
06:21AM 41.9981 -72.6692 237° Southwest 341 392 36,000  Level Boston Center
06:22AM 41.9372 -72.7778 233° Southwest 352 405 36,000  Level Boston Center
06:23AM 41.8764 -72.8833 232° Southwest 363 418 36,000  Level Boston Center
06:24AM 41.8175 -72.9917 234° Southwest 363 418 36,000  Level Boston Center
06:25AM 41.7608 -73.0969 234° Southwest 373 429 36,000  Level Boston Center
06:26AM 41.6997 -73.2047 233° Southwest 373 429 36,000 -120 Level Boston Center
06:27AM 41.6383 -73.3122 233° Southwest 373 429 35,800 -600 Descending Boston Center
06:28AM 41.5769 -73.4225 233° Southwest 373 429 34,800 -1,140 Descending Boston Center
06:31AM 41.4297 -73.6875 234° Southwest 380 437 32,200 -1,140 Descending New York Center
06:32AM 41.3664 -73.7981 233° Southwest 380 437 31,100 -1,080 Descending New York Center
06:33AM 41.3033 -73.9086 233° Southwest 380 437 30,100 -1,020 Descending New York Center
06:34AM 41.2397 -74.0214 233° Southwest 380 437 29,100 -1,080 Descending New York Center
06:35AM 41.1719 -74.1367 232° Southwest 380 437 28,000 -600 Descending New York Center
06:36AM 41.1019 -74.2486 230° Southwest 394 453 28,000  Level New York Center
06:37AM 41.0339 -74.3664 233° Southwest 399 459 28,000  Level New York Center
06:38AM 40.9658 -74.4836 232° Southwest 405 466 28,000  Level New York Center
06:39AM 40.9017 -74.6008 234° Southwest 405 466 28,000  Level New York Center
06:40AM 40.8594 -74.7383 248° West 400 460 28,000  Level New York Center
06:41AM 40.8242 -74.8597 249° West 400 460 28,000  Level New York Center
06:42AM 40.7819 -74.9942 248° West 400 460 28,000 -60 Level New York Center
06:43AM 40.7417 -75.1258 248° West 400 460 27,900 -540 Descending New York Center
06:44AM 40.6992 -75.2600 247° West 400 460 27,000 -900 Descending New York Center
06:45AM 40.6544 -75.3911 246° West 406 467 26,100 -1,020 Descending New York Center
06:46AM 40.6364 -75.5322 260° West 406 467 25,100 -1,020 Descending New York Center
06:47AM 40.6328 -75.6714 268° West 389 448 24,100 -960 Descending New York Center
06:48AM 40.5742 -75.7767 234° Southwest 356 410 23,200 -960 Descending New York Center
06:49AM 40.4914 -75.8606 218° Southwest 358 412 22,200 -960 Descending New York Center
06:50AM 40.3992 -75.9683 222° Southwest 387 445 21,300 -960 Descending New York Center
06:51AM 40.3156 -76.0656 222° Southwest 399 459 20,300 -660 Descending New York Center
06:52AM 40.2367 -76.1547 221° Southwest 404 465 20,000 -180 Descending New York Center
06:53AM 40.1839 -76.2158 222° Southwest 369 425 20,000 -300 Level New York Center
06:54AM 40.1131 -76.3025 223° Southwest 336 387 19,500 -840 Descending New York Center
06:55AM 40.0728 -76.4025 242° Southwest 316 364 18,400 -1,140 Descending New York Center
06:56AM 40.0817 -76.5253 275° West 292 336 17,300 -480 Descending New York Center
06:58AM 39.9833 -76.7333 238° Southwest 293 337 16,900 -120 Descending Potomac TRACON
06:59AM 39.9333 -76.8167 232° Southwest 296 341 17,000  Climbing Potomac TRACON
07:00AM 39.8833 -76.9000 232° Southwest 302 348 17,000 -300 Level Potomac TRACON
07:01AM 39.8333 -76.9667 226° Southwest 302 348 16,500 -1,260 Descending Potomac TRACON
07:02AM 39.7833 -77.0500 232° Southwest 294 338 14,600 -1,920 Descending Potomac TRACON
07:03AM 39.7500 -77.1333 243° Southwest 281 323 12,700 -1,920 Descending Potomac TRACON
07:04AM 39.7000 -77.2000 226° Southwest 274 315 10,800 -1,920 Descending Potomac TRACON
07:05AM 39.6500 -77.2833 232° Southwest 268 308 8,900 -1,740 Descending Potomac TRACON
07:06AM 39.6000 -77.3500 226° Southwest 262 302 7,400 -1,020 Descending Potomac TRACON
07:07AM 39.5333 -77.3833 201° Southwest 257 296 7,000 -780 Descending Potomac TRACON
07:08AM 39.4667 -77.4333 210° Southwest 270 311 6,000 -960 Descending Potomac TRACON
07:09AM 39.4000 -77.4500 191° South 272 313 5,100 -540 Descending Potomac TRACON
07:10AM 39.3167 -77.4500 180° South 273 314 5,000 -480 Descending Potomac TRACON
07:11AM 39.2500 -77.4500 180° South 245 282 4,200 -540 Descending Potomac TRACON
07:12AM 39.1833 -77.4500 180° South 232 267 4,000 -600 Descending Potomac TRACON
07:13AM 39.1167 -77.4500 180° South 230 265 3,100 -900 Descending Potomac TRACON